sensor_id;sensor_type;location;lat;lon;timestamp;P1;durP1;ratioP1;P2;durP2;ratioP2
66946;SDS011;53853;51.982;5.928;2023-05-07T00:02:02;3.83;;;3.35;;
66946;SDS011;53853;51.982;5.928;2023-05-07T00:04:33;4.88;;;3.70;;
66946;SDS011;53853;51.982;5.928;2023-05-07T00:07:07;6.30;;;4.75;;
66946;SDS011;53853;51.982;5.928;2023-05-07T00:09:37;5.00;;;4.10;;
66946;SDS011;53853;51.982;5.928;2023-05-07T00:12:07;4.20;;;3.25;;
66946;SDS011;53853;51.982;5.928;2023-05-07T00:14:36;6.25;;;3.25;;
66946;SDS011;53853;51.982;5.928;2023-05-07T00:17:06;4.90;;;4.10;;
66946;SDS011;53853;51.982;5.928;2023-05-07T00:19:36;5.18;;;4.40;;
66946;SDS011;53853;51.982;5.928;2023-05-07T00:22:08;6.32;;;4.35;;
66946;SDS011;53853;51.982;5.928;2023-05-07T00:24:38;6.85;;;4.95;;
66946;SDS011;53853;51.982;5.928;2023-05-07T00:27:08;4.13;;;3.33;;
66946;SDS011;53853;51.982;5.928;2023-05-07T00:29:38;6.40;;;4.55;;
66946;SDS011;53853;51.982;5.928;2023-05-07T00:32:08;4.90;;;3.95;;
66946;SDS011;53853;51.982;5.928;2023-05-07T00:34:38;5.00;;;3.88;;
66946;SDS011;53853;51.982;5.928;2023-05-07T00:37:11;6.32;;;5.07;;
66946;SDS011;53853;51.982;5.928;2023-05-07T00:39:41;5.30;;;4.78;;
66946;SDS011;53853;51.982;5.928;2023-05-07T00:42:11;5.40;;;4.22;;
66946;SDS011;53853;51.982;5.928;2023-05-07T00:44:41;5.75;;;4.00;;
66946;SDS011;53853;51.982;5.928;2023-05-07T00:47:12;6.55;;;4.40;;
66946;SDS011;53853;51.982;5.928;2023-05-07T00:49:43;4.88;;;3.80;;
66946;SDS011;53853;51.982;5.928;2023-05-07T00:52:16;5.05;;;4.47;;
66946;SDS011;53853;51.982;5.928;2023-05-07T00:54:48;5.00;;;3.60;;
66946;SDS011;53853;51.982;5.928;2023-05-07T00:57:18;5.00;;;4.40;;
66946;SDS011;53853;51.982;5.928;2023-05-07T00:59:50;6.43;;;4.72;;
66946;SDS011;53853;51.982;5.928;2023-05-07T01:02:20;6.50;;;5.07;;
66946;SDS011;53853;51.982;5.928;2023-05-07T01:04:50;4.75;;;4.20;;
66946;SDS011;53853;51.982;5.928;2023-05-07T01:07:22;7.07;;;5.03;;
66946;SDS011;53853;51.982;5.928;2023-05-07T01:09:52;6.78;;;5.47;;
66946;SDS011;53853;51.982;5.928;2023-05-07T01:12:22;5.70;;;4.53;;
66946;SDS011;53853;51.982;5.928;2023-05-07T01:14:53;5.90;;;5.07;;
66946;SDS011;53853;51.982;5.928;2023-05-07T01:17:23;6.55;;;5.35;;
66946;SDS011;53853;51.982;5.928;2023-05-07T01:19:54;9.18;;;5.80;;
66946;SDS011;53853;51.982;5.928;2023-05-07T01:22:30;6.25;;;5.60;;
66946;SDS011;53853;51.982;5.928;2023-05-07T01:25:02;6.50;;;5.90;;
66946;SDS011;53853;51.982;5.928;2023-05-07T01:27:34;8.02;;;6.25;;
66946;SDS011;53853;51.982;5.928;2023-05-07T01:30:05;6.80;;;5.70;;
66946;SDS011;53853;51.982;5.928;2023-05-07T01:32:41;6.70;;;6.00;;
66946;SDS011;53853;51.982;5.928;2023-05-07T01:35:17;6.43;;;5.18;;
66946;SDS011;53853;51.982;5.928;2023-05-07T01:37:51;6.50;;;4.75;;
66946;SDS011;53853;51.982;5.928;2023-05-07T01:40:21;8.35;;;5.57;;
66946;SDS011;53853;51.982;5.928;2023-05-07T01:42:52;7.05;;;5.07;;
66946;SDS011;53853;51.982;5.928;2023-05-07T01:45:24;6.63;;;5.45;;
66946;SDS011;53853;51.982;5.928;2023-05-07T01:47:54;6.15;;;5.43;;
66946;SDS011;53853;51.982;5.928;2023-05-07T01:50:25;7.80;;;5.72;;
66946;SDS011;53853;51.982;5.928;2023-05-07T01:52:58;6.78;;;5.15;;
66946;SDS011;53853;51.982;5.928;2023-05-07T01:55:29;7.25;;;6.53;;
66946;SDS011;53853;51.982;5.928;2023-05-07T01:57:59;7.80;;;6.05;;
66946;SDS011;53853;51.982;5.928;2023-05-07T02:00:29;9.30;;;6.97;;
66946;SDS011;53853;51.982;5.928;2023-05-07T02:03:00;7.05;;;6.35;;
66946;SDS011;53853;51.982;5.928;2023-05-07T02:05:40;7.53;;;6.82;;
66946;SDS011;53853;51.982;5.928;2023-05-07T02:08:23;6.90;;;6.20;;
66946;SDS011;53853;51.982;5.928;2023-05-07T02:10:54;7.28;;;6.57;;
66946;SDS011;53853;51.982;5.928;2023-05-07T02:13:25;8.15;;;6.60;;
66946;SDS011;53853;51.982;5.928;2023-05-07T02:15:55;6.75;;;6.05;;
66946;SDS011;53853;51.982;5.928;2023-05-07T02:18:26;7.10;;;6.10;;
66946;SDS011;53853;51.982;5.928;2023-05-07T02:20:58;7.20;;;6.20;;
66946;SDS011;53853;51.982;5.928;2023-05-07T02:23:30;8.18;;;6.07;;
66946;SDS011;53853;51.982;5.928;2023-05-07T02:26:01;7.00;;;6.30;;
66946;SDS011;53853;51.982;5.928;2023-05-07T02:28:33;7.28;;;6.53;;
66946;SDS011;53853;51.982;5.928;2023-05-07T02:31:05;7.15;;;6.00;;
66946;SDS011;53853;51.982;5.928;2023-05-07T02:33:35;6.47;;;5.65;;
66946;SDS011;53853;51.982;5.928;2023-05-07T02:36:07;6.95;;;5.80;;
66946;SDS011;53853;51.982;5.928;2023-05-07T02:38:56;5.80;;;5.18;;
66946;SDS011;53853;51.982;5.928;2023-05-07T02:41:27;5.38;;;4.35;;
66946;SDS011;53853;51.982;5.928;2023-05-07T02:43:57;5.30;;;4.80;;
66946;SDS011;53853;51.982;5.928;2023-05-07T02:46:27;6.57;;;5.22;;
66946;SDS011;53853;51.982;5.928;2023-05-07T02:49:05;5.88;;;5.28;;
66946;SDS011;53853;51.982;5.928;2023-05-07T02:51:35;6.55;;;5.90;;
66946;SDS011;53853;51.982;5.928;2023-05-07T02:54:12;7.18;;;6.47;;
66946;SDS011;53853;51.982;5.928;2023-05-07T02:56:43;6.97;;;6.28;;
66946;SDS011;53853;51.982;5.928;2023-05-07T02:59:13;8.68;;;6.50;;
66946;SDS011;53853;51.982;5.928;2023-05-07T03:01:43;10.32;;;6.82;;
66946;SDS011;53853;51.982;5.928;2023-05-07T03:04:14;7.68;;;6.97;;
66946;SDS011;53853;51.982;5.928;2023-05-07T03:06:44;8.43;;;7.50;;
66946;SDS011;53853;51.982;5.928;2023-05-07T03:09:16;6.90;;;5.78;;
66946;SDS011;53853;51.982;5.928;2023-05-07T03:11:46;7.32;;;6.53;;
66946;SDS011;53853;51.982;5.928;2023-05-07T03:14:16;8.23;;;6.18;;
66946;SDS011;53853;51.982;5.928;2023-05-07T03:16:46;6.38;;;5.78;;
66946;SDS011;53853;51.982;5.928;2023-05-07T03:19:17;7.03;;;6.20;;
66946;SDS011;53853;51.982;5.928;2023-05-07T03:21:47;7.32;;;6.30;;
66946;SDS011;53853;51.982;5.928;2023-05-07T03:24:19;6.60;;;5.82;;
66946;SDS011;53853;51.982;5.928;2023-05-07T03:26:49;6.70;;;6.05;;
66946;SDS011;53853;51.982;5.928;2023-05-07T03:29:19;7.20;;;6.50;;
66946;SDS011;53853;51.982;5.928;2023-05-07T03:31:49;7.57;;;6.70;;
66946;SDS011;53853;51.982;5.928;2023-05-07T03:34:19;8.07;;;7.07;;
66946;SDS011;53853;51.982;5.928;2023-05-07T03:36:49;7.40;;;6.70;;
66946;SDS011;53853;51.982;5.928;2023-05-07T03:39:25;6.88;;;6.18;;
66946;SDS011;53853;51.982;5.928;2023-05-07T03:41:55;6.32;;;5.72;;
66946;SDS011;53853;51.982;5.928;2023-05-07T03:44:26;8.95;;;6.70;;
66946;SDS011;53853;51.982;5.928;2023-05-07T03:46:58;9.15;;;7.03;;
66946;SDS011;53853;51.982;5.928;2023-05-07T03:49:28;7.72;;;6.90;;
66946;SDS011;53853;51.982;5.928;2023-05-07T03:51:58;6.85;;;5.97;;
66946;SDS011;53853;51.982;5.928;2023-05-07T03:54:32;6.85;;;5.55;;
66946;SDS011;53853;51.982;5.928;2023-05-07T03:57:02;9.13;;;6.80;;
66946;SDS011;53853;51.982;5.928;2023-05-07T03:59:32;7.18;;;6.47;;
66946;SDS011;53853;51.982;5.928;2023-05-07T04:02:02;8.00;;;7.20;;
66946;SDS011;53853;51.982;5.928;2023-05-07T04:04:33;8.68;;;7.72;;
66946;SDS011;53853;51.982;5.928;2023-05-07T04:07:03;7.60;;;6.80;;
66946;SDS011;53853;51.982;5.928;2023-05-07T04:09:40;8.73;;;7.10;;
66946;SDS011;53853;51.982;5.928;2023-05-07T04:12:10;8.20;;;7.40;;
66946;SDS011;53853;51.982;5.928;2023-05-07T04:14:40;9.43;;;8.38;;
66946;SDS011;53853;51.982;5.928;2023-05-07T04:17:10;8.10;;;7.30;;
66946;SDS011;53853;51.982;5.928;2023-05-07T04:19:40;9.50;;;8.07;;
66946;SDS011;53853;51.982;5.928;2023-05-07T04:22:12;10.65;;;9.55;;
66946;SDS011;53853;51.982;5.928;2023-05-07T04:24:44;10.27;;;9.27;;
66946;SDS011;53853;51.982;5.928;2023-05-07T04:27:14;11.15;;;9.57;;
66946;SDS011;53853;51.982;5.928;2023-05-07T04:29:44;8.57;;;7.78;;
66946;SDS011;53853;51.982;5.928;2023-05-07T04:32:15;9.52;;;8.63;;
66946;SDS011;53853;51.982;5.928;2023-05-07T04:34:45;8.25;;;7.43;;
66946;SDS011;53853;51.982;5.928;2023-05-07T04:37:15;7.78;;;6.68;;
66946;SDS011;53853;51.982;5.928;2023-05-07T04:39:48;10.57;;;9.50;;
66946;SDS011;53853;51.982;5.928;2023-05-07T04:42:18;8.18;;;7.18;;
66946;SDS011;53853;51.982;5.928;2023-05-07T04:44:52;8.48;;;7.68;;
66946;SDS011;53853;51.982;5.928;2023-05-07T04:47:23;9.07;;;7.70;;
66946;SDS011;53853;51.982;5.928;2023-05-07T04:49:53;8.35;;;7.55;;
66946;SDS011;53853;51.982;5.928;2023-05-07T04:52:23;11.68;;;10.57;;
66946;SDS011;53853;51.982;5.928;2023-05-07T04:54:56;11.55;;;10.45;;
66946;SDS011;53853;51.982;5.928;2023-05-07T04:57:32;8.43;;;7.72;;
66946;SDS011;53853;51.982;5.928;2023-05-07T05:00:04;9.77;;;8.88;;
66946;SDS011;53853;51.982;5.928;2023-05-07T05:02:36;8.83;;;7.93;;
66946;SDS011;53853;51.982;5.928;2023-05-07T05:05:07;12.27;;;11.07;;
66946;SDS011;53853;51.982;5.928;2023-05-07T05:07:37;9.80;;;8.90;;
66946;SDS011;53853;51.982;5.928;2023-05-07T05:10:10;8.15;;;7.35;;
66946;SDS011;53853;51.982;5.928;2023-05-07T05:12:41;8.52;;;7.72;;
66946;SDS011;53853;51.982;5.928;2023-05-07T05:15:11;8.80;;;7.65;;
66946;SDS011;53853;51.982;5.928;2023-05-07T05:17:42;9.30;;;8.40;;
66946;SDS011;53853;51.982;5.928;2023-05-07T05:20:11;7.97;;;7.18;;
66946;SDS011;53853;51.982;5.928;2023-05-07T05:22:41;9.18;;;8.38;;
66946;SDS011;53853;51.982;5.928;2023-05-07T05:25:15;7.63;;;6.82;;
66946;SDS011;53853;51.982;5.928;2023-05-07T05:27:46;10.50;;;9.50;;
66946;SDS011;53853;51.982;5.928;2023-05-07T05:30:16;9.82;;;8.90;;
66946;SDS011;53853;51.982;5.928;2023-05-07T05:32:46;10.75;;;9.75;;
66946;SDS011;53853;51.982;5.928;2023-05-07T05:35:16;9.43;;;8.52;;
66946;SDS011;53853;51.982;5.928;2023-05-07T05:37:46;10.95;;;9.90;;
66946;SDS011;53853;51.982;5.928;2023-05-07T05:40:20;8.13;;;7.35;;
66946;SDS011;53853;51.982;5.928;2023-05-07T05:42:50;8.65;;;7.80;;
66946;SDS011;53853;51.982;5.928;2023-05-07T05:45:20;8.45;;;7.65;;
66946;SDS011;53853;51.982;5.928;2023-05-07T05:47:50;10.25;;;9.23;;
66946;SDS011;53853;51.982;5.928;2023-05-07T05:50:21;10.27;;;9.05;;
66946;SDS011;53853;51.982;5.928;2023-05-07T05:52:51;9.02;;;8.18;;
66946;SDS011;53853;51.982;5.928;2023-05-07T05:55:25;9.20;;;8.30;;
66946;SDS011;53853;51.982;5.928;2023-05-07T05:57:55;11.77;;;10.68;;
66946;SDS011;53853;51.982;5.928;2023-05-07T06:00:25;9.65;;;8.75;;
66946;SDS011;53853;51.982;5.928;2023-05-07T06:03:01;11.00;;;9.95;;
66946;SDS011;53853;51.982;5.928;2023-05-07T06:05:31;8.15;;;7.45;;
66946;SDS011;53853;51.982;5.928;2023-05-07T06:08:01;9.35;;;8.32;;
66946;SDS011;53853;51.982;5.928;2023-05-07T06:10:35;9.68;;;8.77;;
66946;SDS011;53853;51.982;5.928;2023-05-07T06:13:07;8.35;;;7.60;;
66946;SDS011;53853;51.982;5.928;2023-05-07T06:15:37;9.18;;;8.25;;
66946;SDS011;53853;51.982;5.928;2023-05-07T06:18:10;9.75;;;8.63;;
66946;SDS011;53853;51.982;5.928;2023-05-07T06:20:40;11.73;;;10.63;;
66946;SDS011;53853;51.982;5.928;2023-05-07T06:23:18;13.85;;;12.45;;
66946;SDS011;53853;51.982;5.928;2023-05-07T06:25:51;11.02;;;10.02;;
66946;SDS011;53853;51.982;5.928;2023-05-07T06:28:25;9.25;;;8.20;;
66946;SDS011;53853;51.982;5.928;2023-05-07T06:31:10;9.07;;;8.20;;
66946;SDS011;53853;51.982;5.928;2023-05-07T06:33:44;11.13;;;10.02;;
66946;SDS011;53853;51.982;5.928;2023-05-07T06:36:14;10.93;;;9.88;;
66946;SDS011;53853;51.982;5.928;2023-05-07T06:38:45;9.88;;;8.98;;
66946;SDS011;53853;51.982;5.928;2023-05-07T06:41:18;11.40;;;10.40;;
66946;SDS011;53853;51.982;5.928;2023-05-07T06:43:47;10.20;;;9.20;;
66946;SDS011;53853;51.982;5.928;2023-05-07T06:46:32;10.43;;;9.52;;
66946;SDS011;53853;51.982;5.928;2023-05-07T06:49:03;9.95;;;9.05;;
66946;SDS011;53853;51.982;5.928;2023-05-07T06:51:33;13.50;;;12.20;;
66946;SDS011;53853;51.982;5.928;2023-05-07T06:54:03;13.55;;;12.23;;
66946;SDS011;53853;51.982;5.928;2023-05-07T06:56:38;14.55;;;13.20;;
66946;SDS011;53853;51.982;5.928;2023-05-07T06:59:08;12.45;;;11.30;;
66946;SDS011;53853;51.982;5.928;2023-05-07T07:01:40;14.75;;;13.35;;
66946;SDS011;53853;51.982;5.928;2023-05-07T07:04:11;14.32;;;13.02;;
66946;SDS011;53853;51.982;5.928;2023-05-07T07:06:42;11.93;;;10.70;;
66946;SDS011;53853;51.982;5.928;2023-05-07T07:09:13;13.38;;;12.18;;
66946;SDS011;53853;51.982;5.928;2023-05-07T07:11:46;11.15;;;10.13;;
66946;SDS011;53853;51.982;5.928;2023-05-07T07:14:16;12.32;;;11.10;;
66946;SDS011;53853;51.982;5.928;2023-05-07T07:16:49;13.43;;;12.13;;
66946;SDS011;53853;51.982;5.928;2023-05-07T07:19:20;14.82;;;13.43;;
66946;SDS011;53853;51.982;5.928;2023-05-07T07:21:52;13.60;;;12.45;;
66946;SDS011;53853;51.982;5.928;2023-05-07T07:24:22;12.30;;;11.10;;
66946;SDS011;53853;51.982;5.928;2023-05-07T07:29:29;16.73;;;15.10;;
66946;SDS011;53853;51.982;5.928;2023-05-07T07:31:59;13.63;;;12.23;;
66946;SDS011;53853;51.982;5.928;2023-05-07T07:34:29;13.45;;;12.15;;
66946;SDS011;53853;51.982;5.928;2023-05-07T07:37:00;10.73;;;9.68;;
66946;SDS011;53853;51.982;5.928;2023-05-07T07:39:32;13.45;;;12.07;;
66946;SDS011;53853;51.982;5.928;2023-05-07T07:42:06;12.85;;;11.60;;
66946;SDS011;53853;51.982;5.928;2023-05-07T07:44:36;15.32;;;13.73;;
66946;SDS011;53853;51.982;5.928;2023-05-07T07:47:08;13.57;;;12.27;;
66946;SDS011;53853;51.982;5.928;2023-05-07T07:49:39;14.90;;;13.40;;
66946;SDS011;53853;51.982;5.928;2023-05-07T07:52:09;13.00;;;11.70;;
66946;SDS011;53853;51.982;5.928;2023-05-07T07:54:40;12.38;;;11.13;;
66946;SDS011;53853;51.982;5.928;2023-05-07T07:57:12;14.52;;;13.10;;
66946;SDS011;53853;51.982;5.928;2023-05-07T07:59:42;11.63;;;10.43;;
66946;SDS011;53853;51.982;5.928;2023-05-07T08:02:14;15.25;;;13.75;;
66946;SDS011;53853;51.982;5.928;2023-05-07T08:04:44;13.23;;;11.70;;
66946;SDS011;53853;51.982;5.928;2023-05-07T08:07:14;15.80;;;13.50;;
66946;SDS011;53853;51.982;5.928;2023-05-07T08:09:47;17.30;;;15.60;;
66946;SDS011;53853;51.982;5.928;2023-05-07T08:14:53;14.02;;;12.60;;
66946;SDS011;53853;51.982;5.928;2023-05-07T08:17:23;16.77;;;13.73;;
66946;SDS011;53853;51.982;5.928;2023-05-07T08:19:53;13.50;;;12.02;;
66946;SDS011;53853;51.982;5.928;2023-05-07T08:22:23;13.20;;;11.90;;
66946;SDS011;53853;51.982;5.928;2023-05-07T08:24:53;15.13;;;13.70;;
66946;SDS011;53853;51.982;5.928;2023-05-07T08:27:25;13.52;;;11.88;;
66946;SDS011;53853;51.982;5.928;2023-05-07T08:29:55;13.20;;;11.80;;
66946;SDS011;53853;51.982;5.928;2023-05-07T08:32:25;14.70;;;13.10;;
66946;SDS011;53853;51.982;5.928;2023-05-07T08:34:55;13.52;;;11.90;;
66946;SDS011;53853;51.982;5.928;2023-05-07T08:37:25;13.40;;;11.98;;
66946;SDS011;53853;51.982;5.928;2023-05-07T08:39:55;12.52;;;11.23;;
66946;SDS011;53853;51.982;5.928;2023-05-07T08:42:33;13.50;;;12.10;;
66946;SDS011;53853;51.982;5.928;2023-05-07T08:45:07;14.38;;;12.93;;
66946;SDS011;53853;51.982;5.928;2023-05-07T08:47:42;13.93;;;12.52;;
66946;SDS011;53853;51.982;5.928;2023-05-07T08:50:17;13.82;;;11.82;;
66946;SDS011;53853;51.982;5.928;2023-05-07T08:52:49;13.35;;;12.05;;
66946;SDS011;53853;51.982;5.928;2023-05-07T08:55:20;14.43;;;12.00;;
66946;SDS011;53853;51.982;5.928;2023-05-07T08:57:53;12.77;;;11.50;;
66946;SDS011;53853;51.982;5.928;2023-05-07T09:00:24;11.85;;;10.68;;
66946;SDS011;53853;51.982;5.928;2023-05-07T09:02:55;13.23;;;11.95;;
66946;SDS011;53853;51.982;5.928;2023-05-07T09:05:25;10.02;;;9.02;;
66946;SDS011;53853;51.982;5.928;2023-05-07T09:07:55;13.30;;;11.82;;
66946;SDS011;53853;51.982;5.928;2023-05-07T09:10:29;11.25;;;9.85;;
66946;SDS011;53853;51.982;5.928;2023-05-07T09:13:05;12.93;;;11.35;;
66946;SDS011;53853;51.982;5.928;2023-05-07T09:15:36;13.93;;;12.52;;
66946;SDS011;53853;51.982;5.928;2023-05-07T09:18:06;13.27;;;11.65;;
66946;SDS011;53853;51.982;5.928;2023-05-07T09:20:38;12.18;;;10.90;;
66946;SDS011;53853;51.982;5.928;2023-05-07T09:23:09;10.77;;;9.68;;
66946;SDS011;53853;51.982;5.928;2023-05-07T09:25:39;11.98;;;10.60;;
66946;SDS011;53853;51.982;5.928;2023-05-07T09:28:18;11.73;;;10.52;;
66946;SDS011;53853;51.982;5.928;2023-05-07T09:30:48;13.13;;;11.80;;
66946;SDS011;53853;51.982;5.928;2023-05-07T09:33:19;11.82;;;10.57;;
66946;SDS011;53853;51.982;5.928;2023-05-07T09:35:52;9.77;;;8.77;;
66946;SDS011;53853;51.982;5.928;2023-05-07T09:38:22;14.45;;;11.30;;
66946;SDS011;53853;51.982;5.928;2023-05-07T09:41:03;11.73;;;9.95;;
66946;SDS011;53853;51.982;5.928;2023-05-07T09:43:42;11.73;;;10.63;;
66946;SDS011;53853;51.982;5.928;2023-05-07T09:46:15;10.88;;;9.75;;
66946;SDS011;53853;51.982;5.928;2023-05-07T09:48:52;12.75;;;9.73;;
66946;SDS011;53853;51.982;5.928;2023-05-07T09:51:29;10.13;;;9.13;;
66946;SDS011;53853;51.982;5.928;2023-05-07T09:54:03;9.07;;;8.18;;
66946;SDS011;53853;51.982;5.928;2023-05-07T09:56:38;10.55;;;9.45;;
66946;SDS011;53853;51.982;5.928;2023-05-07T09:59:14;12.82;;;11.65;;
66946;SDS011;53853;51.982;5.928;2023-05-07T10:01:45;13.32;;;11.93;;
66946;SDS011;53853;51.982;5.928;2023-05-07T10:04:16;13.93;;;9.70;;
66946;SDS011;53853;51.982;5.928;2023-05-07T10:06:49;9.15;;;8.25;;
66946;SDS011;53853;51.982;5.928;2023-05-07T10:09:19;9.60;;;8.70;;
66946;SDS011;53853;51.982;5.928;2023-05-07T10:11:50;11.10;;;9.98;;
66946;SDS011;53853;51.982;5.928;2023-05-07T10:14:23;10.15;;;9.13;;
66946;SDS011;53853;51.982;5.928;2023-05-07T10:16:54;12.17;;;9.60;;
66946;SDS011;53853;51.982;5.928;2023-05-07T10:19:25;9.63;;;7.68;;
66946;SDS011;53853;51.982;5.928;2023-05-07T10:21:59;11.05;;;9.30;;
66946;SDS011;53853;51.982;5.928;2023-05-07T10:24:38;9.90;;;8.93;;
66946;SDS011;53853;51.982;5.928;2023-05-07T10:27:13;11.02;;;10.02;;
66946;SDS011;53853;51.982;5.928;2023-05-07T10:29:55;9.50;;;7.97;;
66946;SDS011;53853;51.982;5.928;2023-05-07T10:32:35;11.10;;;10.07;;
66946;SDS011;53853;51.982;5.928;2023-05-07T10:35:14;9.70;;;8.75;;
66946;SDS011;53853;51.982;5.928;2023-05-07T10:37:48;11.20;;;9.90;;
66946;SDS011;53853;51.982;5.928;2023-05-07T10:40:28;11.35;;;10.25;;
66946;SDS011;53853;51.982;5.928;2023-05-07T10:43:02;11.32;;;10.18;;
66946;SDS011;53853;51.982;5.928;2023-05-07T10:45:42;9.57;;;8.68;;
66946;SDS011;53853;51.982;5.928;2023-05-07T10:48:12;11.82;;;10.30;;
66946;SDS011;53853;51.982;5.928;2023-05-07T10:50:50;11.35;;;10.20;;
66946;SDS011;53853;51.982;5.928;2023-05-07T11:03:14;12.25;;;11.05;;
66946;SDS011;53853;51.982;5.928;2023-05-07T11:08:54;8.20;;;7.35;;
66946;SDS011;53853;51.982;5.928;2023-05-07T11:11:44;9.88;;;8.88;;
66946;SDS011;53853;51.982;5.928;2023-05-07T11:14:45;10.00;;;9.00;;
66946;SDS011;53853;51.982;5.928;2023-05-07T11:17:23;9.18;;;8.27;;
66946;SDS011;53853;51.982;5.928;2023-05-07T11:20:05;12.30;;;10.93;;
66946;SDS011;53853;51.982;5.928;2023-05-07T11:22:49;11.95;;;10.80;;
66946;SDS011;53853;51.982;5.928;2023-05-07T11:25:35;10.05;;;9.15;;
66946;SDS011;53853;51.982;5.928;2023-05-07T11:28:12;9.02;;;8.13;;
66946;SDS011;53853;51.982;5.928;2023-05-07T11:30:48;11.32;;;9.20;;
66946;SDS011;53853;51.982;5.928;2023-05-07T11:33:19;9.32;;;8.38;;
66946;SDS011;53853;51.982;5.928;2023-05-07T11:35:55;9.63;;;8.73;;
66946;SDS011;53853;51.982;5.928;2023-05-07T11:38:34;6.90;;;6.00;;
66946;SDS011;53853;51.982;5.928;2023-05-07T11:41:05;8.85;;;7.70;;
66946;SDS011;53853;51.982;5.928;2023-05-07T11:43:36;8.65;;;7.85;;
66946;SDS011;53853;51.982;5.928;2023-05-07T11:46:06;13.40;;;11.35;;
66946;SDS011;53853;51.982;5.928;2023-05-07T11:48:38;10.90;;;9.77;;
66946;SDS011;53853;51.982;5.928;2023-05-07T11:51:10;10.25;;;8.80;;
66946;SDS011;53853;51.982;5.928;2023-05-07T11:53:41;10.68;;;9.68;;
66946;SDS011;53853;51.982;5.928;2023-05-07T11:56:12;8.73;;;7.93;;
66946;SDS011;53853;51.982;5.928;2023-05-07T11:58:44;14.13;;;10.93;;
66946;SDS011;53853;51.982;5.928;2023-05-07T12:01:15;8.88;;;8.07;;
66946;SDS011;53853;51.982;5.928;2023-05-07T12:03:45;11.63;;;10.50;;
66946;SDS011;53853;51.982;5.928;2023-05-07T12:06:18;9.57;;;8.68;;
66946;SDS011;53853;51.982;5.928;2023-05-07T12:08:48;9.93;;;8.13;;
66946;SDS011;53853;51.982;5.928;2023-05-07T12:11:21;7.22;;;6.55;;
66946;SDS011;53853;51.982;5.928;2023-05-07T12:13:53;8.30;;;6.75;;
66946;SDS011;53853;51.982;5.928;2023-05-07T12:16:24;10.48;;;7.55;;
66946;SDS011;53853;51.982;5.928;2023-05-07T12:18:54;7.25;;;6.45;;
66946;SDS011;53853;51.982;5.928;2023-05-07T12:21:27;9.95;;;8.88;;
66946;SDS011;53853;51.982;5.928;2023-05-07T12:23:57;7.57;;;6.85;;
66946;SDS011;53853;51.982;5.928;2023-05-07T12:26:27;6.45;;;5.75;;
66946;SDS011;53853;51.982;5.928;2023-05-07T12:28:57;8.63;;;6.88;;
66946;SDS011;53853;51.982;5.928;2023-05-07T12:31:27;6.15;;;5.55;;
66946;SDS011;53853;51.982;5.928;2023-05-07T12:33:57;10.45;;;9.48;;
66946;SDS011;53853;51.982;5.928;2023-05-07T12:36:35;7.32;;;6.45;;
66946;SDS011;53853;51.982;5.928;2023-05-07T12:39:06;6.55;;;5.93;;
66946;SDS011;53853;51.982;5.928;2023-05-07T12:41:36;8.45;;;6.85;;
66946;SDS011;53853;51.982;5.928;2023-05-07T12:44:22;7.82;;;6.70;;
66946;SDS011;53853;51.982;5.928;2023-05-07T12:46:52;6.50;;;5.80;;
66946;SDS011;53853;51.982;5.928;2023-05-07T12:49:22;8.32;;;6.57;;
66946;SDS011;53853;51.982;5.928;2023-05-07T12:51:55;10.90;;;9.80;;
66946;SDS011;53853;51.982;5.928;2023-05-07T12:57:00;7.03;;;6.32;;
66946;SDS011;53853;51.982;5.928;2023-05-07T12:59:31;7.57;;;5.63;;
66946;SDS011;53853;51.982;5.928;2023-05-07T13:02:02;7.15;;;6.45;;
66946;SDS011;53853;51.982;5.928;2023-05-07T13:04:32;10.98;;;8.70;;
66946;SDS011;53853;51.982;5.928;2023-05-07T13:07:04;6.93;;;6.22;;
66946;SDS011;53853;51.982;5.928;2023-05-07T13:09:34;5.60;;;5.00;;
66946;SDS011;53853;51.982;5.928;2023-05-07T13:12:04;6.22;;;5.63;;
66946;SDS011;53853;51.982;5.928;2023-05-07T13:14:34;7.05;;;5.45;;
66946;SDS011;53853;51.982;5.928;2023-05-07T13:17:04;6.78;;;6.07;;
66946;SDS011;53853;51.982;5.928;2023-05-07T13:19:34;5.57;;;5.07;;
66946;SDS011;53853;51.982;5.928;2023-05-07T13:22:06;5.43;;;4.90;;
66946;SDS011;53853;51.982;5.928;2023-05-07T13:24:36;5.93;;;5.18;;
66946;SDS011;53853;51.982;5.928;2023-05-07T13:27:07;8.45;;;7.50;;
66946;SDS011;53853;51.982;5.928;2023-05-07T13:29:37;5.72;;;4.60;;
66946;SDS011;53853;51.982;5.928;2023-05-07T13:32:06;9.15;;;8.25;;
66946;SDS011;53853;51.982;5.928;2023-05-07T13:34:36;9.85;;;8.85;;
66946;SDS011;53853;51.982;5.928;2023-05-07T13:37:09;7.43;;;6.20;;
66946;SDS011;53853;51.982;5.928;2023-05-07T13:39:38;6.60;;;5.72;;
66946;SDS011;53853;51.982;5.928;2023-05-07T13:42:08;6.22;;;5.63;;
66946;SDS011;53853;51.982;5.928;2023-05-07T13:44:38;6.88;;;4.55;;
66946;SDS011;53853;51.982;5.928;2023-05-07T13:47:09;7.88;;;5.80;;
66946;SDS011;53853;51.982;5.928;2023-05-07T13:49:39;7.10;;;6.40;;
66946;SDS011;53853;51.982;5.928;2023-05-07T13:52:11;5.93;;;4.82;;
66946;SDS011;53853;51.982;5.928;2023-05-07T13:54:41;4.72;;;4.22;;
66946;SDS011;53853;51.982;5.928;2023-05-07T13:57:11;6.43;;;4.57;;
66946;SDS011;53853;51.982;5.928;2023-05-07T13:59:41;8.88;;;7.13;;
66946;SDS011;53853;51.982;5.928;2023-05-07T14:02:11;5.93;;;5.30;;
66946;SDS011;53853;51.982;5.928;2023-05-07T14:04:40;9.10;;;5.80;;
66946;SDS011;53853;51.982;5.928;2023-05-07T14:07:13;6.72;;;5.32;;
66946;SDS011;53853;51.982;5.928;2023-05-07T14:09:43;6.40;;;5.35;;
66946;SDS011;53853;51.982;5.928;2023-05-07T14:12:13;8.15;;;6.82;;
66946;SDS011;53853;51.982;5.928;2023-05-07T14:14:43;5.70;;;4.93;;
66946;SDS011;53853;51.982;5.928;2023-05-07T14:17:15;5.75;;;5.13;;
66946;SDS011;53853;51.982;5.928;2023-05-07T14:19:45;5.70;;;4.45;;
66946;SDS011;53853;51.982;5.928;2023-05-07T14:22:18;8.95;;;7.15;;
66946;SDS011;53853;51.982;5.928;2023-05-07T14:24:48;6.82;;;4.85;;
66946;SDS011;53853;51.982;5.928;2023-05-07T14:27:19;5.43;;;4.13;;
66946;SDS011;53853;51.982;5.928;2023-05-07T14:29:48;5.97;;;4.60;;
66946;SDS011;53853;51.982;5.928;2023-05-07T14:32:19;7.00;;;6.30;;
66946;SDS011;53853;51.982;5.928;2023-05-07T14:34:49;8.43;;;6.80;;
66946;SDS011;53853;51.982;5.928;2023-05-07T14:37:22;7.90;;;7.00;;
66946;SDS011;53853;51.982;5.928;2023-05-07T14:39:52;6.47;;;5.47;;
66946;SDS011;53853;51.982;5.928;2023-05-07T14:42:22;7.38;;;6.22;;
66946;SDS011;53853;51.982;5.928;2023-05-07T14:44:51;9.10;;;5.97;;
66946;SDS011;53853;51.982;5.928;2023-05-07T14:47:21;5.95;;;4.72;;
66946;SDS011;53853;51.982;5.928;2023-05-07T14:49:51;5.15;;;4.40;;
66946;SDS011;53853;51.982;5.928;2023-05-07T14:52:25;4.50;;;3.38;;
66946;SDS011;53853;51.982;5.928;2023-05-07T14:54:55;4.20;;;2.85;;
66946;SDS011;53853;51.982;5.928;2023-05-07T14:57:25;2.70;;;1.92;;
66946;SDS011;53853;51.982;5.928;2023-05-07T14:59:55;3.13;;;1.60;;
66946;SDS011;53853;51.982;5.928;2023-05-07T15:02:25;2.60;;;1.73;;
66946;SDS011;53853;51.982;5.928;2023-05-07T15:04:54;5.43;;;2.28;;
66946;SDS011;53853;51.982;5.928;2023-05-07T15:07:27;3.50;;;1.75;;
66946;SDS011;53853;51.982;5.928;2023-05-07T15:09:58;4.60;;;2.42;;
66946;SDS011;53853;51.982;5.928;2023-05-07T15:12:28;4.45;;;2.40;;
66946;SDS011;53853;51.982;5.928;2023-05-07T15:14:58;4.68;;;2.72;;
66946;SDS011;53853;51.982;5.928;2023-05-07T15:17:27;4.78;;;2.20;;
66946;SDS011;53853;51.982;5.928;2023-05-07T15:19:57;3.63;;;2.25;;
66946;SDS011;53853;51.982;5.928;2023-05-07T15:22:33;4.20;;;2.70;;
66946;SDS011;53853;51.982;5.928;2023-05-07T15:25:04;4.50;;;3.17;;
66946;SDS011;53853;51.982;5.928;2023-05-07T15:27:34;4.65;;;2.67;;
66946;SDS011;53853;51.982;5.928;2023-05-07T15:30:05;3.80;;;2.45;;